Time;durP1;ratioP1;P1;durP2;ratioP2;P2;SDS_P1;SDS_P2;PMS_P1;PMS_P2;Temp;Humidity;BMP_temperature;BMP_pressure;BME280_temperature;BME280_humidity;BME280_pressure;Samples;Min_cycle;Max_cycle;Signal;HPM_P1;HPM_P2
2021/12/16 00:09:01;;;;;;;0.00;0.00;;;;;23.10;100049.00;;;;4890667;29;20512;-73
2021/12/16 00:33:39;;;;;;;0.00;0.00;;;;;23.10;100067.00;;;;4891146;29;20051;-75
2021/12/16 00:36:10;;;;;;;0.00;0.00;;;;;23.10;100066.00;;;;4891225;29;20060;-74
2021/12/16 00:38:42;;;;;;;0.00;0.00;;;;;23.00;100055.00;;;;4891202;29;20611;-74
2021/12/16 00:41:12;;;;;;;0.00;0.00;;;;;23.00;100053.00;;;;4891039;29;20044;-74
2021/12/16 00:54:39;;;;;;;0.00;0.00;;;;;23.00;100076.00;;;;4888206;29;20132;-75
2021/12/16 00:57:13;;;;;;;0.00;0.00;;;;;23.00;100066.00;;;;4887759;29;20692;-75
2021/12/16 00:59:47;;;;;;;0.00;0.00;;;;;23.00;100078.00;;;;4890813;29;20060;-75
2021/12/16 01:50:42;;;;;;;1.13;1.08;;;;;22.80;100074.00;;;;4875329;29;20041;-74
2021/12/16 01:56:47;;;;;;;0.00;0.00;;;;;22.80;100063.00;;;;4902902;29;20049;-74
2021/12/16 01:58:49;;;;;;;0.00;0.00;;;;;22.90;100094.00;;;;4879760;29;20053;-75
2021/12/16 02:01:28;;;;;;;0.00;0.00;;;;;22.80;100092.00;;;;4874449;29;20064;-75
2021/12/16 02:04:07;;;;;;;0.00;0.00;;;;;22.80;100088.00;;;;4874752;29;20081;-74
2021/12/16 02:07:02;;;;;;;0.00;0.00;;;;;22.80;100088.00;;;;4873262;29;20060;-76
2021/12/16 02:09:43;;;;;;;0.00;0.00;;;;;22.80;100070.00;;;;4874855;29;20056;-76
2021/12/16 02:29:24;;;;;;;0.00;0.00;;;;;22.60;100082.00;;;;4874352;29;20541;-74
2021/12/16 02:34:57;;;;;;;0.00;0.00;;;;;22.50;100077.00;;;;4873998;29;20052;-74
2021/12/16 02:37:31;;;;;;;0.00;0.00;;;;;22.50;100077.00;;;;4873064;29;20049;-77
2021/12/16 02:40:06;;;;;;;0.00;0.00;;;;;22.50;100069.00;;;;4872580;29;20065;-73
2021/12/16 02:43:27;;;;;;;0.00;0.00;;;;;22.40;100061.00;;;;4872550;29;20101;-75
2021/12/16 02:48:36;;;;;;;0.00;0.00;;;;;22.30;100054.00;;;;4874211;29;20048;-74
2021/12/16 02:51:08;;;;;;;0.00;0.00;;;;;22.20;100062.00;;;;4872104;29;20053;-74
2021/12/16 02:53:44;;;;;;;0.00;0.00;;;;;22.10;100039.00;;;;4873162;29;20052;-73
2021/12/16 02:56:15;;;;;;;0.00;0.00;;;;;21.90;100062.00;;;;4874417;29;20097;-75
2021/12/16 02:58:49;;;;;;;0.00;0.00;;;;;21.90;100058.00;;;;4874039;29;20132;-74
2021/12/16 03:01:51;;;;;;;0.00;0.00;;;;;21.80;100054.00;;;;4871875;29;20067;-73
2021/12/16 03:04:25;;;;;;;0.00;0.00;;;;;21.70;100052.00;;;;4869233;29;20061;-75
2021/12/16 03:06:57;;;;;;;0.00;0.00;;;;;21.60;100054.00;;;;4873304;29;20037;-75
2021/12/16 03:10:05;;;;;;;0.30;0.30;;;;;21.50;100049.00;;;;4887573;29;20061;-73
2021/12/16 03:15:47;;;;;;;0.00;0.00;;;;;21.40;100059.00;;;;4887797;29;20059;-75
2021/12/16 03:21:19;;;;;;;0.00;0.00;;;;;21.20;100057.00;;;;4887036;29;20794;-73
2021/12/16 03:24:57;;;;;;;0.00;0.00;;;;;21.20;100033.00;;;;4872771;29;20433;-72
2021/12/16 03:38:06;;;;;;;0.00;0.00;;;;;21.00;100019.00;;;;4887227;29;20076;-73
2021/12/16 03:40:37;;;;;;;0.00;0.00;;;;;20.90;100011.00;;;;4886402;29;20128;-75
2021/12/16 03:43:15;;;;;;;0.00;0.00;;;;;20.90;100030.00;;;;4870925;29;20053;-75
2021/12/16 03:48:59;;;;;;;0.00;0.00;;;;;20.90;100022.00;;;;4886699;29;20136;-74
2021/12/16 03:51:34;;;;;;;0.00;0.00;;;;;20.90;100029.00;;;;4871840;29;20559;-73
2021/12/16 03:54:22;;;;;;;0.00;0.00;;;;;20.90;100015.00;;;;4871131;29;20045;-74
2021/12/16 03:56:57;;;;;;;0.00;0.00;;;;;20.90;100028.00;;;;4871679;29;20140;-75
2021/12/16 03:59:31;;;;;;;0.00;0.00;;;;;20.80;100020.00;;;;4872080;29;20143;-74
2021/12/16 04:02:30;;;;;;;0.00;0.00;;;;;20.80;100018.00;;;;4871643;29;20064;-74
2021/12/16 04:05:02;;;;;;;0.00;0.00;;;;;20.80;100031.00;;;;4871646;29;20525;-73
2021/12/16 04:07:37;;;;;;;0.00;0.00;;;;;20.70;100035.00;;;;4871093;29;20060;-74
2021/12/16 04:10:33;;;;;;;0.00;0.00;;;;;20.70;100036.00;;;;4871115;29;20053;-74
2021/12/16 04:13:13;;;;;;;0.00;0.00;;;;;20.70;100015.00;;;;4871058;29;20057;-74
2021/12/16 04:15:47;;;;;;;0.00;0.00;;;;;20.70;100014.00;;;;4886474;29;20548;-74
2021/12/16 04:18:19;;;;;;;0.00;0.00;;;;;20.80;100016.00;;;;4870703;29;20059;-75
2021/12/16 04:20:51;;;;;;;0.00;0.00;;;;;20.80;100011.00;;;;4870929;29;20555;-75
2021/12/16 04:23:21;;;;;;;0.00;0.00;;;;;20.80;100029.00;;;;4871345;29;20053;-76
2021/12/16 04:25:52;;;;;;;0.00;0.00;;;;;20.90;100019.00;;;;4886658;29;20049;-73
2021/12/16 04:28:26;;;;;;;0.00;0.00;;;;;21.00;100024.00;;;;4870438;29;20080;-72
2021/12/16 04:30:59;;;;;;;0.00;0.00;;;;;21.10;100032.00;;;;4886549;29;20109;-75
2021/12/16 04:33:29;;;;;;;0.00;0.00;;;;;21.10;100034.00;;;;4870559;29;20053;-74
2021/12/16 04:35:59;;;;;;;0.00;0.00;;;;;21.20;100018.00;;;;4871507;29;20057;-74
2021/12/16 04:38:29;;;;;;;0.00;0.00;;;;;21.30;100026.00;;;;4871138;29;20128;-74
2021/12/16 04:40:58;;;;;;;0.00;0.00;;;;;21.30;100012.00;;;;4870298;29;20053;-74
2021/12/16 04:43:38;;;;;;;0.00;0.00;;;;;21.30;100026.00;;;;4870685;29;20080;-73
2021/12/16 04:46:12;;;;;;;0.00;0.00;;;;;21.40;100026.00;;;;4871011;29;20140;-76
2021/12/16 04:48:47;;;;;;;0.00;0.00;;;;;21.50;100025.00;;;;4871410;29;20097;-75
2021/12/16 04:51:34;;;;;;;0.00;0.00;;;;;21.50;100017.00;;;;4886374;29;20592;-73
2021/12/16 04:54:05;;;;;;;0.00;0.00;;;;;21.50;100016.00;;;;4873874;29;20052;-73
2021/12/16 04:56:37;;;;;;;0.00;0.00;;;;;21.40;100019.00;;;;4889645;29;20067;-75
2021/12/16 04:59:12;;;;;;;0.00;0.00;;;;;21.50;99989.00;;;;4874434;29;20524;-73
2021/12/16 05:01:49;;;;;;;0.00;0.00;;;;;21.50;99980.00;;;;4873707;29;20115;-74
2021/12/16 05:04:39;;;;;;;0.00;0.00;;;;;21.50;100014.00;;;;4873684;29;20057;-73
2021/12/16 05:07:10;;;;;;;0.00;0.00;;;;;21.40;100011.00;;;;4874390;29;20049;-74
2021/12/16 05:12:18;;;;;;;0.00;0.00;;;;;21.50;99992.00;;;;4875570;29;20101;-75
2021/12/16 05:14:49;;;;;;;0.00;0.00;;;;;21.40;99990.00;;;;4876093;29;20068;-73
2021/12/16 05:17:30;;;;;;;0.00;0.00;;;;;21.40;99986.00;;;;4873628;29;20057;-72
2021/12/16 05:20:06;;;;;;;0.00;0.00;;;;;21.40;99997.00;;;;4873825;29;20053;-74
2021/12/16 05:28:15;;;;;;;0.00;0.00;;;;;21.40;100010.00;;;;4888930;29;20123;-73
2021/12/16 05:30:45;;;;;;;0.00;0.00;;;;;21.40;100008.00;;;;4876073;29;20059;-74
2021/12/16 05:33:15;;;;;;;0.00;0.00;;;;;21.40;100011.00;;;;4873862;29;20063;-74
2021/12/16 05:35:46;;;;;;;0.00;0.00;;;;;21.40;100005.00;;;;4875573;29;20052;-73
2021/12/16 05:38:16;;;;;;;;;;;;;21.30;100005.00;;;;4874381;29;20104;-73
2021/12/16 05:40:46;;;;;;;0.00;0.00;;;;;21.30;100004.00;;;;4889900;29;19924;-74
2021/12/16 05:43:32;;;;;;;0.00;0.00;;;;;21.30;100012.00;;;;4877112;29;20113;-73
2021/12/16 05:46:03;;;;;;;0.00;0.00;;;;;21.30;100003.00;;;;4898808;29;20049;-74
2021/12/16 05:48:36;;;;;;;;;;;;;21.40;99998.00;;;;4873610;29;20049;-74
2021/12/16 05:51:11;;;;;;;0.00;0.00;;;;;21.40;99980.00;;;;4873974;29;20479;-74
2021/12/16 05:53:42;;;;;;;0.00;0.00;;;;;21.40;99982.00;;;;4875739;29;20049;-74
2021/12/16 05:56:28;;;;;;;0.00;0.00;;;;;21.40;99993.00;;;;4873869;29;20063;-74
2021/12/16 05:58:58;;;;;;;0.00;0.00;;;;;21.40;99990.00;;;;4873545;29;20045;-73
2021/12/16 06:01:31;;;;;;;0.00;0.00;;;;;21.40;100002.00;;;;4888968;29;20057;-74
2021/12/16 06:04:02;;;;;;;0.00;0.00;;;;;21.40;100001.00;;;;4888704;29;20814;-74
2021/12/16 06:06:32;;;;;;;0.00;0.00;;;;;21.40;99980.00;;;;4872066;29;20061;-74
2021/12/16 06:09:06;;;;;;;0.00;0.00;;;;;21.40;99995.00;;;;4873308;29;20471;-73
2021/12/16 06:11:40;;;;;;;0.00;0.00;;;;;21.40;99986.00;;;;4874749;29;20124;-74
2021/12/16 06:28:10;;;;;;;0.00;0.00;;;;;21.40;99982.00;;;;4874387;29;20125;-74
2021/12/16 06:30:45;;;;;;;0.00;0.00;;;;;21.40;99990.00;;;;4874033;29;20521;-73
2021/12/16 06:33:19;;;;;;;0.00;0.00;;;;;21.40;99985.00;;;;4873858;29;20057;-73
2021/12/16 06:35:52;;;;;;;0.00;0.00;;;;;21.50;99979.00;;;;4874600;29;20045;-73
2021/12/16 06:38:23;;;;;;;0.00;0.00;;;;;21.40;99982.00;;;;4872530;29;20105;-74
2021/12/16 06:41:12;;;;;;;0.00;0.00;;;;;21.40;99961.00;;;;4873359;29;20155;-73
2021/12/16 06:43:42;;;;;;;1.27;0.55;;;;;21.40;99980.00;;;;4874069;29;20065;-74
2021/12/16 06:46:16;;;;;;;0.00;0.00;;;;;21.40;99983.00;;;;4874123;29;20049;-73
2021/12/16 06:48:53;;;;;;;0.00;0.00;;;;;21.30;99977.00;;;;4873680;29;20131;-73
2021/12/16 06:51:35;;;;;;;0.00;0.00;;;;;21.30;99974.00;;;;4873950;29;20097;-74
2021/12/16 06:54:14;;;;;;;0.00;0.00;;;;;21.20;99962.00;;;;4874501;29;20498;-74
2021/12/16 06:59:38;;;;;;;0.00;0.00;;;;;21.10;99977.00;;;;4873517;29;20040;-73
2021/12/16 07:02:43;;;;;;;0.00;0.00;;;;;21.20;99971.00;;;;4873870;29;20038;-74
2021/12/16 07:05:14;;;;;;;0.00;0.00;;;;;21.20;99981.00;;;;4872859;29;20077;-73
2021/12/16 07:07:44;;;;;;;0.00;0.00;;;;;21.20;99959.00;;;;4873284;29;20048;-73
2021/12/16 07:10:17;;;;;;;0.00;0.00;;;;;21.20;99962.00;;;;4873921;29;20136;-73
2021/12/16 07:12:48;;;;;;;0.00;0.00;;;;;21.20;99980.00;;;;4873209;29;20045;-74
2021/12/16 07:15:22;;;;;;;0.00;0.00;;;;;21.20;99964.00;;;;4873862;29;20045;-74
2021/12/16 07:17:52;;;;;;;0.00;0.00;;;;;21.20;99983.00;;;;4872721;29;20112;-74
2021/12/16 07:20:27;;;;;;;0.00;0.00;;;;;21.20;99980.00;;;;4873051;29;20088;-74
2021/12/16 07:22:58;;;;;;;0.00;0.00;;;;;21.20;99985.00;;;;4873069;29;20057;-73
2021/12/16 07:25:28;;;;;;;0.00;0.00;;;;;21.10;99971.00;;;;4886700;29;20093;-73
2021/12/16 07:27:59;;;;;;;0.00;0.00;;;;;21.10;99999.00;;;;4871827;29;20140;-74
2021/12/16 07:30:28;;;;;;;0.00;0.00;;;;;21.10;99991.00;;;;4873081;29;20049;-73
2021/12/16 07:32:58;;;;;;;0.00;0.00;;;;;21.10;99977.00;;;;4873433;29;20070;-73
2021/12/16 07:35:28;;;;;;;0.00;0.00;;;;;21.10;99984.00;;;;4873286;29;20055;-74
2021/12/16 07:37:58;;;;;;;0.00;0.00;;;;;21.00;99998.00;;;;4872800;29;20394;-73
2021/12/16 07:40:31;;;;;;;0.00;0.00;;;;;21.00;99991.00;;;;4887192;29;20136;-73
2021/12/16 07:45:42;;;;;;;0.00;0.00;;;;;21.00;99997.00;;;;4873128;29;19934;-73
2021/12/16 07:48:14;;;;;;;0.00;0.00;;;;;21.00;99987.00;;;;4873394;29;20136;-74
2021/12/16 07:50:47;;;;;;;0.00;0.00;;;;;20.90;99988.00;;;;4873137;29;20093;-74
2021/12/16 07:53:18;;;;;;;0.00;0.00;;;;;20.90;99999.00;;;;4869098;29;20136;-73
2021/12/16 07:55:48;;;;;;;0.00;0.00;;;;;20.80;100000.00;;;;4869595;29;20049;-74
2021/12/16 07:58:19;;;;;;;0.00;0.00;;;;;20.80;99976.00;;;;4869311;29;20077;-73
2021/12/16 08:00:49;;;;;;;0.00;0.00;;;;;20.80;99980.00;;;;4886468;29;20037;-73
2021/12/16 08:03:19;;;;;;;0.00;0.00;;;;;20.70;99989.00;;;;4872654;29;20045;-73
2021/12/16 08:05:55;;;;;;;0.00;0.00;;;;;20.70;100002.00;;;;4872487;29;20049;-74
2021/12/16 08:08:25;;;;;;;0.00;0.00;;;;;20.70;99979.00;;;;4872257;29;20065;-73
2021/12/16 08:10:55;;;;;;;0.03;0.03;;;;;20.60;99985.00;;;;4872646;29;20509;-73
2021/12/16 08:13:25;;;;;;;0.00;0.00;;;;;20.70;99983.00;;;;4872397;29;20109;-74
2021/12/16 08:15:54;;;;;;;0.00;0.00;;;;;20.70;100001.00;;;;4872261;29;20109;-74
2021/12/16 08:18:24;;;;;;;0.00;0.00;;;;;20.80;99999.00;;;;4871323;29;20603;-74
2021/12/16 08:20:54;;;;;;;0.00;0.00;;;;;20.90;100027.00;;;;4872972;29;20049;-74
2021/12/16 08:23:24;;;;;;;0.00;0.00;;;;;21.00;100012.00;;;;4872626;29;20056;-74
2021/12/16 08:25:54;;;;;;;0.00;0.00;;;;;21.00;100025.00;;;;4872503;29;20049;-73
2021/12/16 08:28:25;;;;;;;0.00;0.00;;;;;21.00;100016.00;;;;4872756;29;20093;-73
2021/12/16 08:30:56;;;;;;;0.00;0.00;;;;;21.10;100029.00;;;;4876463;29;20057;-73
2021/12/16 08:33:25;;;;;;;0.00;0.00;;;;;21.10;100029.00;;;;4876278;29;20513;-74
2021/12/16 08:35:56;;;;;;;0.32;0.32;;;;;21.20;100022.00;;;;4875467;29;20045;-73
2021/12/16 08:38:27;;;;;;;0.00;0.00;;;;;21.20;99999.00;;;;4876652;29;20125;-73
2021/12/16 08:41:00;;;;;;;0.00;0.00;;;;;21.30;100008.00;;;;4876078;29;20580;-73
2021/12/16 08:43:30;;;;;;;0.00;0.00;;;;;21.20;100011.00;;;;4874523;29;20470;-74
2021/12/16 08:46:00;;;;;;;0.00;0.00;;;;;21.20;100025.00;;;;4876240;29;20047;-74
2021/12/16 08:48:29;;;;;;;0.00;0.00;;;;;21.20;100024.00;;;;4875861;29;20547;-73
2021/12/16 09:03:48;;;;;;;0.38;0.38;;;;;21.40;100013.00;;;;5123999;27;20468;-74
2021/12/16 09:06:20;;;;;;;0.00;0.00;;;;;21.50;100015.00;;;;5124267;27;20043;-75
2021/12/16 09:08:50;;;;;;;0.00;0.00;;;;;21.50;100041.00;;;;5123837;27;20100;-75
2021/12/16 09:11:22;;;;;;;0.00;0.00;;;;;21.50;100047.00;;;;5124248;27;20051;-75
2021/12/16 09:13:56;;;;;;;0.00;0.00;;;;;21.60;100018.00;;;;5123973;27;20532;-75
2021/12/16 09:16:30;;;;;;;0.00;0.00;;;;;21.70;100032.00;;;;5123164;28;20036;-75
2021/12/16 09:19:02;;;;;;;0.00;0.00;;;;;21.80;100052.00;;;;5123952;28;20451;-75
2021/12/16 09:21:36;;;;;;;0.00;0.00;;;;;22.00;100038.00;;;;5124241;27;20069;-74
2021/12/16 09:24:07;;;;;;;0.32;0.25;;;;;22.30;100049.00;;;;5123822;28;20454;-73
2021/12/16 09:26:37;;;;;;;0.00;0.00;;;;;22.40;100040.00;;;;5123227;28;20124;-74
2021/12/16 09:29:06;;;;;;;0.00;0.00;;;;;22.50;100035.00;;;;5124811;27;20035;-74
2021/12/16 09:31:37;;;;;;;0.00;0.00;;;;;22.50;100031.00;;;;5123840;28;20051;-74
2021/12/16 09:34:08;;;;;;;3.20;2.40;;;;;22.50;100036.00;;;;5125729;27;20454;-75
2021/12/16 09:36:41;;;;;;;0.00;0.00;;;;;22.60;100043.00;;;;5131928;27;20134;-74
2021/12/16 09:39:13;;;;;;;0.00;0.00;;;;;22.70;100043.00;;;;5128848;27;20047;-73
2021/12/16 09:41:46;;;;;;;0.00;0.00;;;;;22.70;100054.00;;;;5124526;28;20067;-74
2021/12/16 09:44:19;;;;;;;0.00;0.00;;;;;22.70;100068.00;;;;5123735;27;20540;-74
2021/12/16 09:46:51;;;;;;;0.00;0.00;;;;;22.70;100056.00;;;;5122113;28;20048;-75
2021/12/16 09:49:21;;;;;;;1.70;0.95;;;;;22.80;100063.00;;;;5124042;27;20173;-75
2021/12/16 09:51:53;;;;;;;0.47;0.47;;;;;22.70;100059.00;;;;5123909;27;20133;-75
2021/12/16 09:54:28;;;;;;;0.00;0.00;;;;;22.60;100094.00;;;;5123864;28;20085;-74
2021/12/16 09:56:59;;;;;;;0.65;0.65;;;;;22.60;100091.00;;;;5122983;27;20053;-74
2021/12/16 09:59:31;;;;;;;1.20;0.47;;;;;22.60;100092.00;;;;5124406;27;20055;-73
2021/12/16 10:02:07;;;;;;;0.00;0.00;;;;;22.60;100087.00;;;;5122062;27;20289;-74
2021/12/16 10:04:37;;;;;;;0.88;0.32;;;;;22.70;100099.00;;;;5108365;28;20040;-74
2021/12/16 10:07:13;;;;;;;0.00;0.00;;;;;22.70;100086.00;;;;5109729;28;20047;-74
2021/12/16 10:09:45;;;;;;;0.00;0.00;;;;;22.80;100094.00;;;;5108826;28;20665;-75
2021/12/16 10:12:20;;;;;;;0.00;0.00;;;;;22.80;100095.00;;;;5109224;28;20051;-74
2021/12/16 10:17:32;;;;;;;0.10;0.10;;;;;22.70;100125.00;;;;5109593;28;20054;-75
2021/12/16 10:20:21;;;;;;;0.00;0.00;;;;;22.70;100104.00;;;;5109594;28;20540;-74
2021/12/16 10:23:06;;;;;;;0.15;0.15;;;;;22.70;100110.00;;;;5109563;28;20061;-75
2021/12/16 10:25:44;;;;;;;0.20;0.20;;;;;22.80;100121.00;;;;5109149;28;20719;-75
2021/12/16 10:28:16;;;;;;;0.00;0.00;;;;;22.70;100113.00;;;;5107614;28;20039;-75
2021/12/16 10:31:03;;;;;;;0.00;0.00;;;;;22.80;100130.00;;;;5109018;28;20592;-75
2021/12/16 10:33:42;;;;;;;0.80;0.65;;;;;22.90;100125.00;;;;5108547;28;20065;-74
2021/12/16 10:36:14;;;;;;;1.40;0.77;;;;;22.90;100136.00;;;;5109301;28;20151;-75
2021/12/16 10:38:55;;;;;;;0.47;0.47;;;;;22.70;100131.00;;;;5109179;28;20150;-75
2021/12/16 10:41:38;;;;;;;0.00;0.00;;;;;22.60;100136.00;;;;5108963;28;20043;-76
2021/12/16 10:44:17;;;;;;;5.65;2.65;;;;;22.60;100152.00;;;;5108641;28;20046;-75
2021/12/16 10:47:00;;;;;;;0.95;0.70;;;;;22.60;100123.00;;;;5108284;28;20075;-75
2021/12/16 10:49:39;;;;;;;0.15;0.15;;;;;22.60;100140.00;;;;5109251;27;20036;-75
2021/12/16 10:52:13;;;;;;;0.00;0.00;;;;;22.60;100145.00;;;;5107689;28;20051;-75
2021/12/16 10:54:50;;;;;;;0.32;0.20;;;;;22.60;100140.00;;;;5108887;28;20604;-74
2021/12/16 10:57:25;;;;;;;0.35;0.35;;;;;22.50;100145.00;;;;5108677;28;20596;-75
2021/12/16 11:00:06;;;;;;;0.00;0.00;;;;;22.50;100160.00;;;;5108621;28;20039;-74
2021/12/16 11:02:38;;;;;;;0.43;0.43;;;;;22.60;100156.00;;;;5108021;28;20048;-74
2021/12/16 11:05:24;;;;;;;1.15;0.68;;;;;22.60;100147.00;;;;5108026;28;20405;-75
2021/12/16 11:07:59;;;;;;;0.00;0.00;;;;;22.70;100169.00;;;;5107864;28;20482;-75
2021/12/16 11:10:34;;;;;;;1.55;0.88;;;;;22.70;100151.00;;;;5108224;28;20039;-76
2021/12/16 11:13:08;;;;;;;0.10;0.10;;;;;22.70;100160.00;;;;5108129;28;20039;-75
2021/12/16 11:15:52;;;;;;;0.70;0.70;;;;;22.80;100168.00;;;;5107328;28;20126;-74
2021/12/16 11:18:26;;;;;;;0.00;0.00;;;;;22.70;100158.00;;;;5108290;28;20043;-74
2021/12/16 11:21:09;;;;;;;0.35;0.35;;;;;22.70;100163.00;;;;5108293;28;20044;-75
2021/12/16 11:23:43;;;;;;;0.10;0.10;;;;;22.70;100174.00;;;;5108062;28;20067;-75
2021/12/16 11:26:20;;;;;;;0.00;0.00;;;;;22.70;100169.00;;;;5107972;28;20059;-75
2021/12/16 11:28:53;;;;;;;0.00;0.00;;;;;22.60;100190.00;;;;5107516;28;20392;-74
2021/12/16 11:31:31;;;;;;;0.00;0.00;;;;;22.70;100173.00;;;;5108359;28;20096;-75
2021/12/16 11:34:08;;;;;;;0.20;0.20;;;;;22.70;100173.00;;;;5107973;28;20088;-75
2021/12/16 11:36:44;;;;;;;0.98;0.80;;;;;22.70;100179.00;;;;5107819;28;20047;-74
2021/12/16 11:39:29;;;;;;;0.00;0.00;;;;;22.70;100172.00;;;;5107910;28;20116;-74
2021/12/16 11:42:03;;;;;;;3.53;1.40;;;;;22.70;100174.00;;;;5106887;28;20051;-74
2021/12/16 11:44:42;;;;;;;0.52;0.15;;;;;22.60;100182.00;;;;5107540;28;20078;-74
2021/12/16 11:47:22;;;;;;;0.00;0.00;;;;;22.70;100185.00;;;;5107732;27;20044;-75
2021/12/16 11:49:59;;;;;;;0.00;0.00;;;;;22.80;100191.00;;;;5107984;28;20089;-74
2021/12/16 11:52:37;;;;;;;0.20;0.15;;;;;23.00;100189.00;;;;5107025;28;20054;-75
2021/12/16 11:55:13;;;;;;;1.90;1.30;;;;;23.20;100172.00;;;;5107428;28;20112;-75
2021/12/16 11:57:51;;;;;;;0.00;0.00;;;;;23.30;100199.00;;;;5107683;28;20043;-75
2021/12/16 12:00:46;;;;;;;0.20;0.20;;;;;23.30;100180.00;;;;5107906;28;20055;-74
2021/12/16 12:03:15;;;;;;;1.23;0.95;;;;;23.30;100175.00;;;;5107735;28;20056;-75
2021/12/16 12:05:50;;;;;;;1.75;0.82;;;;;23.40;100149.00;;;;5108056;28;20036;-76
2021/12/16 12:08:26;;;;;;;0.95;0.95;;;;;23.30;100190.00;;;;5107578;28;20062;-74
2021/12/16 12:11:06;;;;;;;1.95;1.50;;;;;23.30;100177.00;;;;5107402;28;20522;-76
2021/12/16 12:13:38;;;;;;;0.30;0.30;;;;;23.20;100167.00;;;;5107632;28;20064;-75
2021/12/16 12:16:28;;;;;;;0.10;0.10;;;;;23.40;100192.00;;;;5107550;28;20108;-74
2021/12/16 12:19:00;;;;;;;1.23;0.98;;;;;23.60;100168.00;;;;5107131;28;20044;-75
2021/12/16 12:21:44;;;;;;;;;;;;;23.60;100185.00;;;;5107661;28;20052;-74
2021/12/16 12:24:31;;;;;;;1.52;1.25;;;;;23.60;100181.00;;;;5107244;28;19943;-75
2021/12/16 12:27:13;;;;;;;1.80;0.80;;;;;23.70;100174.00;;;;5107416;28;20047;-74
2021/12/16 12:30:03;;;;;;;1.75;1.25;;;;;23.70;100195.00;;;;5107772;28;20153;-74
2021/12/16 12:32:43;;;;;;;0.00;0.00;;;;;23.70;100191.00;;;;5107612;28;20502;-75
2021/12/16 12:35:20;;;;;;;1.20;0.57;;;;;23.60;100184.00;;;;5106033;28;20052;-74
2021/12/16 12:37:56;;;;;;;0.00;0.00;;;;;23.60;100182.00;;;;5106976;28;20031;-74
2021/12/16 12:40:38;;;;;;;0.10;0.10;;;;;23.60;100201.00;;;;5107095;28;20088;-74
2021/12/16 12:43:09;;;;;;;2.83;1.00;;;;;23.50;100197.00;;;;5106761;28;20047;-73
2021/12/16 12:45:41;;;;;;;2.90;0.90;;;;;23.40;100209.00;;;;5106604;28;20093;-75
2021/12/16 12:48:16;;;;;;;17.23;2.13;;;;;23.30;100204.00;;;;5106419;28;20085;-74
2021/12/16 12:50:48;;;;;;;0.10;0.10;;;;;23.40;100216.00;;;;5106715;28;20044;-75
2021/12/16 12:53:23;;;;;;;0.00;0.00;;;;;24.00;100184.00;;;;5106857;28;20075;-74
2021/12/16 12:55:58;;;;;;;0.00;0.00;;;;;24.40;100194.00;;;;5106443;28;20123;-75
2021/12/16 12:58:33;;;;;;;0.50;0.50;;;;;24.50;100191.00;;;;5106893;28;20036;-74
2021/12/16 13:01:05;;;;;;;3.05;1.58;;;;;24.60;100183.00;;;;5106421;28;20779;-75
2021/12/16 13:03:38;;;;;;;1.05;0.80;;;;;24.30;100186.00;;;;5106997;28;20135;-74
2021/12/16 13:06:14;;;;;;;0.00;0.00;;;;;24.10;100205.00;;;;5106881;28;20039;-74
2021/12/16 13:08:50;;;;;;;0.00;0.00;;;;;23.90;100203.00;;;;5106439;28;20054;-75
2021/12/16 13:11:27;;;;;;;3.83;1.80;;;;;24.00;100194.00;;;;5105956;28;20036;-75
2021/12/16 13:14:14;;;;;;;0.00;0.00;;;;;24.00;100217.00;;;;5106700;28;20620;-73
2021/12/16 13:28:40;;;;;;;0.00;0.00;;;;;24.00;100229.00;;;;5106996;28;20051;-75
2021/12/16 13:31:27;;;;;;;0.13;0.13;;;;;24.10;100215.00;;;;5107291;28;20081;-75
2021/12/16 13:33:59;;;;;;;0.10;0.10;;;;;24.20;100209.00;;;;5105584;28;20043;-74
2021/12/16 13:36:50;;;;;;;0.10;0.10;;;;;24.30;100228.00;;;;5105967;28;20048;-74
2021/12/16 13:39:25;;;;;;;23.45;21.35;;;;;24.80;100183.00;;;;5108738;28;20506;-74
2021/12/16 13:42:05;;;;;;;0.70;0.70;;;;;25.60;100181.00;;;;5109773;28;20107;-74
2021/12/16 13:44:58;;;;;;;0.10;0.10;;;;;26.00;100177.00;;;;5109752;28;20040;-74
2021/12/16 14:04:59;;;;;;;0.50;0.50;;;;;25.60;100196.00;;;;5109458;28;20039;-74
2021/12/16 14:07:55;;;;;;;0.77;0.60;;;;;25.20;100205.00;;;;5110152;28;20036;-76
2021/12/16 14:39:29;;;;;;;0.00;0.00;;;;;26.10;100200.00;;;;5109426;28;20110;-75
2021/12/16 14:50:19;;;;;;;0.22;0.22;;;;;25.40;100210.00;;;;5109222;28;20138;-74
2021/12/16 14:52:49;;;;;;;1.02;0.57;;;;;25.30;100201.00;;;;5108679;28;20043;-74
2021/12/16 14:55:20;;;;;;;0.00;0.00;;;;;25.50;100207.00;;;;5108645;28;20514;-75
2021/12/16 14:57:53;;;;;;;0.35;0.32;;;;;26.20;100194.00;;;;5109038;28;20055;-73
2021/12/16 15:00:33;;;;;;;0.10;0.10;;;;;27.10;100170.00;;;;5108311;28;20059;-74
2021/12/16 15:03:28;;;;;;;0.08;0.08;;;;;28.10;100145.00;;;;5109078;28;20062;-73
2021/12/16 15:06:02;;;;;;;0.52;0.38;;;;;29.40;100163.00;;;;5102881;28;20086;-73
2021/12/16 15:08:54;;;;;;;0.05;0.05;;;;;29.20;100179.00;;;;5108991;28;20126;-75
2021/12/16 15:11:48;;;;;;;0.00;0.00;;;;;28.50;100182.00;;;;5108598;28;20460;-74
2021/12/16 15:14:34;;;;;;;0.15;0.10;;;;;27.60;100223.00;;;;5108766;28;20048;-74
2021/12/16 15:17:23;;;;;;;0.10;0.10;;;;;26.80;100221.00;;;;5107416;28;20097;-74
2021/12/16 15:45:15;;;;;;;0.00;0.00;;;;;28.40;100187.00;;;;5106827;28;20829;-75
2021/12/16 15:47:56;;;;;;;0.10;0.10;;;;;27.70;100201.00;;;;5106016;28;20142;-73
2021/12/16 15:50:32;;;;;;;0.03;0.03;;;;;27.20;100224.00;;;;5107362;28;20043;-74
2021/12/16 15:53:06;;;;;;;0.00;0.00;;;;;26.90;100223.00;;;;5107429;28;20054;-75
2021/12/16 15:55:41;;;;;;;0.20;0.10;;;;;26.70;100232.00;;;;5107676;28;20399;-74
2021/12/16 15:58:18;;;;;;;0.00;0.00;;;;;26.50;100231.00;;;;5107578;28;20039;-73
2021/12/16 16:00:54;;;;;;;0.05;0.05;;;;;25.80;100258.00;;;;5107626;28;20516;-74
2021/12/16 16:03:26;;;;;;;0.00;0.00;;;;;25.30;100252.00;;;;5108107;28;20051;-74
2021/12/16 16:06:00;;;;;;;0.00;0.00;;;;;25.00;100249.00;;;;5107303;28;20044;-74
2021/12/16 16:08:34;;;;;;;0.00;0.00;;;;;24.80;100239.00;;;;5107462;28;20039;-74
2021/12/16 16:11:08;;;;;;;0.17;0.10;;;;;24.70;100246.00;;;;5107276;28;20036;-74
2021/12/16 16:13:48;;;;;;;0.00;0.00;;;;;25.00;100236.00;;;;5107532;28;20170;-77
2021/12/16 16:16:23;;;;;;;0.20;0.20;;;;;25.50;100218.00;;;;5106918;28;20506;-78
2021/12/16 16:18:56;;;;;;;0.00;0.00;;;;;26.20;100204.00;;;;5107112;28;20061;-76
2021/12/16 16:21:33;;;;;;;0.00;0.00;;;;;27.20;100156.00;;;;5107355;28;20115;-78
2021/12/16 16:24:34;;;;;;;0.05;0.05;;;;;28.30;100175.00;;;;5107607;28;20043;-71
2021/12/16 16:27:12;;;;;;;0.00;0.00;;;;;29.90;100137.00;;;;5105367;28;20058;-76
2021/12/16 16:29:49;;;;;;;0.00;0.00;;;;;32.00;100094.00;;;;5108480;28;20044;-75
2021/12/16 16:32:22;;;;;;;0.00;0.00;;;;;32.90;100168.00;;;;5107230;28;20561;-80
2021/12/16 16:34:55;;;;;;;0.00;0.00;;;;;32.70;100147.00;;;;5106819;28;20764;-76
2021/12/16 16:37:31;;;;;;;0.00;0.00;;;;;32.40;100096.00;;;;5107305;28;20039;-77
2021/12/16 16:40:09;;;;;;;0.00;0.00;;;;;31.10;100176.00;;;;5107021;28;20043;-77
2021/12/16 16:42:43;;;;;;;0.00;0.00;;;;;30.10;100185.00;;;;5105657;28;20506;-77
2021/12/16 16:45:21;;;;;;;0.05;0.05;;;;;29.30;100195.00;;;;5107305;28;20539;-75
2021/12/16 16:47:54;;;;;;;1.30;1.27;;;;;29.00;100203.00;;;;5107401;28;20139;-73
2021/12/16 16:50:25;;;;;;;0.00;0.00;;;;;29.10;100176.00;;;;5106899;28;20059;-76
2021/12/16 16:52:55;;;;;;;0.00;0.00;;;;;29.70;100155.00;;;;5105785;28;20092;-76
2021/12/16 16:55:31;;;;;;;0.10;0.10;;;;;30.30;100151.00;;;;5106840;28;20115;-76
2021/12/16 16:58:04;;;;;;;0.00;0.00;;;;;31.30;100158.00;;;;5106606;28;20048;-76
2021/12/16 17:00:39;;;;;;;0.00;0.00;;;;;31.30;100147.00;;;;5107133;28;20039;-74
2021/12/16 17:03:11;;;;;;;0.00;0.00;;;;;31.60;100118.00;;;;5106532;28;20067;-78
2021/12/16 17:05:52;;;;;;;0.00;0.00;;;;;31.50;100179.00;;;;5106946;28;20040;-72
2021/12/16 17:08:36;;;;;;;0.00;0.00;;;;;31.00;100157.00;;;;5106419;28;20634;-76
2021/12/16 17:11:15;;;;;;;0.00;0.00;;;;;31.30;100167.00;;;;5106715;28;20073;-75
2021/12/16 17:14:17;;;;;;;0.00;0.00;;;;;30.80;100175.00;;;;5108723;28;20051;-75
2021/12/16 17:19:46;;;;;;;0.00;0.00;;;;;31.40;100063.00;;;;5117307;28;20044;-76
2021/12/16 17:22:26;;;;;;;0.00;0.00;;;;;32.20;100145.00;;;;5110688;28;20514;-75
2021/12/16 17:24:57;;;;;;;0.00;0.00;;;;;32.90;100161.00;;;;5110591;28;20051;-77
2021/12/16 17:27:37;;;;;;;0.08;0.08;;;;;32.00;100172.00;;;;5109816;28;20048;-76